KTPA/TPA METAR and TAF weather

Enter ICAO airport designator
Station Type Date Time Source
KTPA METAR 2022/12/10 01:53 UTC NOAA

KTPA 100153Z 33006KT 9SM FEW003 19/18 A3013 RMK AO2 SLP203 T01890183


Station Type Date Time Source
KTPA Decoded METAR 2022/12/10 01:53 UTC NOAA

TAMPA INTERNATIONAL AIRPORT , FL, United States (KTPA) 27-58N 082-32W 11M
Dec 09, 2022 - 08:53 PM EST / 2022.12.10 0153 UTC
Wind: from the NNW (330 degrees) at 7 MPH (6 KT):0
Visibility: 9 mile(s):0
Sky conditions: mostly clear
Temperature: 66.0 F (18.9 C)
Dew Point: 64.9 F (18.3 C)
Relative Humidity: 96%
Pressure (altimeter): 30.13 in. Hg (1020 hPa)
ob: KTPA 100153Z 33006KT 9SM FEW003 19/18 A3013 RMK AO2 SLP203 T01890183
cycle: 2

Station Type Date Time Source
KTPA TAF 2022/12/10 02:36 UTC NOAA

TAF
AMD KTPA 100135Z 1002/1106 31006KT P6SM FEW002
FM100300 35002KT 3SM BR BKN005
FM100900 VRB03KT 1/4SM FG BKN003
FM101400 VRB03KT 5SM BR SCT005
FM101600 02003KT P6SM FEW035
FM102000 29008KT P6SM FEW250

Example: see airport list